sensor_id;sensor_type;location;lat;lon;timestamp;temperature;humidity
44517;DHT22;30223;17.182;-96.766;2023-06-14T00:00:45;30.80;50.10
44517;DHT22;30223;17.182;-96.766;2023-06-14T00:03:12;30.80;49.20
44517;DHT22;30223;17.182;-96.766;2023-06-14T00:05:44;30.80;50.00
44517;DHT22;30223;17.182;-96.766;2023-06-14T00:08:13;30.80;50.40
44517;DHT22;30223;17.182;-96.766;2023-06-14T00:10:40;30.80;50.40
44517;DHT22;30223;17.182;-96.766;2023-06-14T00:13:11;30.80;49.40
44517;DHT22;30223;17.182;-96.766;2023-06-14T00:15:38;30.80;48.80
44517;DHT22;30223;17.182;-96.766;2023-06-14T00:18:05;30.80;50.80
44517;DHT22;30223;17.182;-96.766;2023-06-14T00:20:33;30.80;48.20
44517;DHT22;30223;17.182;-96.766;2023-06-14T00:23:00;30.70;48.10
44517;DHT22;30223;17.182;-96.766;2023-06-14T00:25:28;30.70;48.00
44517;DHT22;30223;17.182;-96.766;2023-06-14T00:27:55;30.60;47.70
44517;DHT22;30223;17.182;-96.766;2023-06-14T00:30:22;30.60;47.30
44517;DHT22;30223;17.182;-96.766;2023-06-14T00:32:49;30.60;47.60
44517;DHT22;30223;17.182;-96.766;2023-06-14T00:35:17;30.60;47.30
44517;DHT22;30223;17.182;-96.766;2023-06-14T00:37:44;30.50;47.10
44517;DHT22;30223;17.182;-96.766;2023-06-14T00:40:11;30.40;46.80
44517;DHT22;30223;17.182;-96.766;2023-06-14T00:42:38;30.40;47.00
44517;DHT22;30223;17.182;-96.766;2023-06-14T00:45:05;30.40;47.20
44517;DHT22;30223;17.182;-96.766;2023-06-14T00:47:32;30.40;47.50
44517;DHT22;30223;17.182;-96.766;2023-06-14T00:49:59;30.30;47.70
44517;DHT22;30223;17.182;-96.766;2023-06-14T00:52:26;30.40;47.60
44517;DHT22;30223;17.182;-96.766;2023-06-14T00:54:53;30.30;47.10
44517;DHT22;30223;17.182;-96.766;2023-06-14T00:57:20;30.30;47.00
44517;DHT22;30223;17.182;-96.766;2023-06-14T00:59:48;30.20;47.10
44517;DHT22;30223;17.182;-96.766;2023-06-14T01:02:15;30.20;46.80
44517;DHT22;30223;17.182;-96.766;2023-06-14T01:04:45;30.20;47.00
44517;DHT22;30223;17.182;-96.766;2023-06-14T01:15:01;30.20;46.60
44517;DHT22;30223;17.182;-96.766;2023-06-14T01:17:30;30.10;46.50
44517;DHT22;30223;17.182;-96.766;2023-06-14T01:20:06;30.10;46.50
44517;DHT22;30223;17.182;-96.766;2023-06-14T01:22:36;30.00;46.50
44517;DHT22;30223;17.182;-96.766;2023-06-14T01:25:03;30.10;46.40
44517;DHT22;30223;17.182;-96.766;2023-06-14T01:27:31;30.00;46.60
44517;DHT22;30223;17.182;-96.766;2023-06-14T01:29:59;30.10;47.30
44517;DHT22;30223;17.182;-96.766;2023-06-14T01:32:30;30.10;47.70
44517;DHT22;30223;17.182;-96.766;2023-06-14T01:34:57;30.10;47.50
44517;DHT22;30223;17.182;-96.766;2023-06-14T01:37:24;30.10;47.60
44517;DHT22;30223;17.182;-96.766;2023-06-14T01:39:51;30.10;47.90
44517;DHT22;30223;17.182;-96.766;2023-06-14T01:42:18;30.10;49.60
44517;DHT22;30223;17.182;-96.766;2023-06-14T01:44:47;30.20;49.40
44517;DHT22;30223;17.182;-96.766;2023-06-14T01:47:14;30.20;49.80
44517;DHT22;30223;17.182;-96.766;2023-06-14T01:49:41;30.20;49.50
44517;DHT22;30223;17.182;-96.766;2023-06-14T01:52:14;30.20;47.80
44517;DHT22;30223;17.182;-96.766;2023-06-14T01:54:42;30.20;47.70
44517;DHT22;30223;17.182;-96.766;2023-06-14T01:57:09;30.20;47.50
44517;DHT22;30223;17.182;-96.766;2023-06-14T01:59:36;30.20;48.70
44517;DHT22;30223;17.182;-96.766;2023-06-14T02:02:03;30.20;47.50
44517;DHT22;30223;17.182;-96.766;2023-06-14T02:04:31;30.30;48.40
44517;DHT22;30223;17.182;-96.766;2023-06-14T02:06:57;30.30;48.20
44517;DHT22;30223;17.182;-96.766;2023-06-14T02:09:26;30.30;47.60
44517;DHT22;30223;17.182;-96.766;2023-06-14T02:11:55;30.30;47.50
44517;DHT22;30223;17.182;-96.766;2023-06-14T02:14:22;30.30;48.50
44517;DHT22;30223;17.182;-96.766;2023-06-14T02:16:49;30.30;47.70
44517;DHT22;30223;17.182;-96.766;2023-06-14T02:19:16;30.30;49.30
44517;DHT22;30223;17.182;-96.766;2023-06-14T02:21:44;30.30;48.80
44517;DHT22;30223;17.182;-96.766;2023-06-14T02:24:14;30.40;49.40
44517;DHT22;30223;17.182;-96.766;2023-06-14T02:26:41;30.40;49.10
44517;DHT22;30223;17.182;-96.766;2023-06-14T02:29:08;30.40;48.40
44517;DHT22;30223;17.182;-96.766;2023-06-14T02:31:37;30.30;47.80
44517;DHT22;30223;17.182;-96.766;2023-06-14T02:34:04;30.30;48.40
44517;DHT22;30223;17.182;-96.766;2023-06-14T02:36:31;30.30;49.30
44517;DHT22;30223;17.182;-96.766;2023-06-14T02:38:58;30.40;50.00
44517;DHT22;30223;17.182;-96.766;2023-06-14T02:41:25;30.40;50.40
44517;DHT22;30223;17.182;-96.766;2023-06-14T02:43:52;30.40;49.70
44517;DHT22;30223;17.182;-96.766;2023-06-14T02:46:19;30.40;49.70
44517;DHT22;30223;17.182;-96.766;2023-06-14T02:48:58;30.40;50.30
44517;DHT22;30223;17.182;-96.766;2023-06-14T02:51:25;30.40;50.30
44517;DHT22;30223;17.182;-96.766;2023-06-14T02:53:52;30.40;51.00
44517;DHT22;30223;17.182;-96.766;2023-06-14T02:56:19;30.50;52.00
44517;DHT22;30223;17.182;-96.766;2023-06-14T02:58:45;30.50;49.60
44517;DHT22;30223;17.182;-96.766;2023-06-14T03:01:14;30.40;48.90
44517;DHT22;30223;17.182;-96.766;2023-06-14T03:03:41;30.40;49.90
44517;DHT22;30223;17.182;-96.766;2023-06-14T03:06:08;30.40;48.40
44517;DHT22;30223;17.182;-96.766;2023-06-14T03:08:35;30.30;48.60
44517;DHT22;30223;17.182;-96.766;2023-06-14T03:11:04;30.40;48.50
44517;DHT22;30223;17.182;-96.766;2023-06-14T03:13:32;30.30;49.00
44517;DHT22;30223;17.182;-96.766;2023-06-14T03:15:59;30.30;47.60
44517;DHT22;30223;17.182;-96.766;2023-06-14T03:18:30;30.30;49.60
44517;DHT22;30223;17.182;-96.766;2023-06-14T03:21:04;30.30;49.70
44517;DHT22;30223;17.182;-96.766;2023-06-14T03:23:32;30.30;49.20
44517;DHT22;30223;17.182;-96.766;2023-06-14T03:25:59;30.30;48.40
44517;DHT22;30223;17.182;-96.766;2023-06-14T03:28:26;30.30;48.30
44517;DHT22;30223;17.182;-96.766;2023-06-14T03:30:53;30.30;48.20
44517;DHT22;30223;17.182;-96.766;2023-06-14T03:33:20;30.30;48.60
44517;DHT22;30223;17.182;-96.766;2023-06-14T03:35:47;30.30;49.50
44517;DHT22;30223;17.182;-96.766;2023-06-14T03:38:13;30.30;47.90
44517;DHT22;30223;17.182;-96.766;2023-06-14T03:40:41;30.30;48.40
44517;DHT22;30223;17.182;-96.766;2023-06-14T03:43:08;30.30;48.50
44517;DHT22;30223;17.182;-96.766;2023-06-14T03:45:34;30.30;48.10
44517;DHT22;30223;17.182;-96.766;2023-06-14T03:48:01;30.20;48.40
44517;DHT22;30223;17.182;-96.766;2023-06-14T03:50:28;30.20;48.40
44517;DHT22;30223;17.182;-96.766;2023-06-14T03:52:55;30.30;48.90
44517;DHT22;30223;17.182;-96.766;2023-06-14T03:55:22;30.20;48.40
44517;DHT22;30223;17.182;-96.766;2023-06-14T03:57:54;30.20;48.20
44517;DHT22;30223;17.182;-96.766;2023-06-14T04:00:20;30.20;48.30
44517;DHT22;30223;17.182;-96.766;2023-06-14T04:02:47;30.10;48.40
44517;DHT22;30223;17.182;-96.766;2023-06-14T04:05:14;30.10;48.40
44517;DHT22;30223;17.182;-96.766;2023-06-14T04:07:46;30.00;48.30
44517;DHT22;30223;17.182;-96.766;2023-06-14T04:10:15;30.00;48.40
44517;DHT22;30223;17.182;-96.766;2023-06-14T04:12:43;30.00;48.90
44517;DHT22;30223;17.182;-96.766;2023-06-14T04:15:10;29.90;48.60
44517;DHT22;30223;17.182;-96.766;2023-06-14T04:17:37;29.90;48.70
44517;DHT22;30223;17.182;-96.766;2023-06-14T04:20:05;29.80;48.60
44517;DHT22;30223;17.182;-96.766;2023-06-14T04:22:34;29.80;48.60
44517;DHT22;30223;17.182;-96.766;2023-06-14T04:25:02;29.70;48.60
44517;DHT22;30223;17.182;-96.766;2023-06-14T04:27:32;29.70;48.60
44517;DHT22;30223;17.182;-96.766;2023-06-14T04:30:01;29.60;48.70
44517;DHT22;30223;17.182;-96.766;2023-06-14T04:32:29;29.70;49.10
44517;DHT22;30223;17.182;-96.766;2023-06-14T04:35:06;29.70;49.10
44517;DHT22;30223;17.182;-96.766;2023-06-14T04:37:33;29.70;49.30
44517;DHT22;30223;17.182;-96.766;2023-06-14T04:40:00;29.70;49.30
44517;DHT22;30223;17.182;-96.766;2023-06-14T04:42:27;29.70;49.70
44517;DHT22;30223;17.182;-96.766;2023-06-14T04:44:58;29.80;49.60
44517;DHT22;30223;17.182;-96.766;2023-06-14T04:47:25;29.70;49.50
44517;DHT22;30223;17.182;-96.766;2023-06-14T04:49:57;29.80;50.60
44517;DHT22;30223;17.182;-96.766;2023-06-14T04:52:24;29.80;49.30
44517;DHT22;30223;17.182;-96.766;2023-06-14T04:54:52;29.80;49.50
44517;DHT22;30223;17.182;-96.766;2023-06-14T04:57:23;29.80;49.90
44517;DHT22;30223;17.182;-96.766;2023-06-14T04:59:51;29.80;49.40
44517;DHT22;30223;17.182;-96.766;2023-06-14T05:02:24;29.80;49.30
44517;DHT22;30223;17.182;-96.766;2023-06-14T05:04:51;29.90;50.20
44517;DHT22;30223;17.182;-96.766;2023-06-14T05:07:19;29.90;50.20
44517;DHT22;30223;17.182;-96.766;2023-06-14T05:09:46;29.90;49.80
44517;DHT22;30223;17.182;-96.766;2023-06-14T05:12:13;29.90;49.80
44517;DHT22;30223;17.182;-96.766;2023-06-14T05:14:40;29.90;49.40
44517;DHT22;30223;17.182;-96.766;2023-06-14T05:17:07;29.90;49.20
44517;DHT22;30223;17.182;-96.766;2023-06-14T05:19:34;29.90;49.20
44517;DHT22;30223;17.182;-96.766;2023-06-14T05:22:01;29.90;49.70
44517;DHT22;30223;17.182;-96.766;2023-06-14T05:24:29;29.90;49.70
44517;DHT22;30223;17.182;-96.766;2023-06-14T05:26:58;29.90;49.00
44517;DHT22;30223;17.182;-96.766;2023-06-14T05:29:25;29.90;49.40
44517;DHT22;30223;17.182;-96.766;2023-06-14T05:32:05;29.90;49.00
44517;DHT22;30223;17.182;-96.766;2023-06-14T05:34:37;29.90;49.30
44517;DHT22;30223;17.182;-96.766;2023-06-14T05:37:04;29.90;49.20
44517;DHT22;30223;17.182;-96.766;2023-06-14T05:39:32;29.90;49.20
44517;DHT22;30223;17.182;-96.766;2023-06-14T05:41:59;29.90;49.20
44517;DHT22;30223;17.182;-96.766;2023-06-14T05:44:25;29.80;49.30
44517;DHT22;30223;17.182;-96.766;2023-06-14T05:46:52;29.80;50.20
44517;DHT22;30223;17.182;-96.766;2023-06-14T05:49:19;29.80;50.00
44517;DHT22;30223;17.182;-96.766;2023-06-14T05:51:46;29.80;49.80
44517;DHT22;30223;17.182;-96.766;2023-06-14T05:54:12;29.80;50.20
44517;DHT22;30223;17.182;-96.766;2023-06-14T05:56:39;29.80;49.70
44517;DHT22;30223;17.182;-96.766;2023-06-14T05:59:06;29.70;50.20
44517;DHT22;30223;17.182;-96.766;2023-06-14T06:01:33;29.70;50.40
44517;DHT22;30223;17.182;-96.766;2023-06-14T06:04:03;29.70;50.30
44517;DHT22;30223;17.182;-96.766;2023-06-14T06:06:29;29.70;50.80
44517;DHT22;30223;17.182;-96.766;2023-06-14T06:08:56;29.70;49.90
44517;DHT22;30223;17.182;-96.766;2023-06-14T06:11:23;29.70;49.90
44517;DHT22;30223;17.182;-96.766;2023-06-14T06:13:50;29.60;50.00
44517;DHT22;30223;17.182;-96.766;2023-06-14T06:16:17;29.60;49.90
44517;DHT22;30223;17.182;-96.766;2023-06-14T06:18:44;29.50;49.10
44517;DHT22;30223;17.182;-96.766;2023-06-14T06:21:11;29.50;49.00
44517;DHT22;30223;17.182;-96.766;2023-06-14T06:23:37;29.40;48.90
44517;DHT22;30223;17.182;-96.766;2023-06-14T06:26:04;29.30;48.80
44517;DHT22;30223;17.182;-96.766;2023-06-14T06:28:31;29.20;48.70
44517;DHT22;30223;17.182;-96.766;2023-06-14T06:30:58;29.20;48.70
44517;DHT22;30223;17.182;-96.766;2023-06-14T06:33:25;29.10;48.60
44517;DHT22;30223;17.182;-96.766;2023-06-14T06:35:52;29.00;48.60
44517;DHT22;30223;17.182;-96.766;2023-06-14T06:38:18;28.90;48.60
44517;DHT22;30223;17.182;-96.766;2023-06-14T06:40:45;28.90;49.00
44517;DHT22;30223;17.182;-96.766;2023-06-14T06:43:12;28.80;48.90
44517;DHT22;30223;17.182;-96.766;2023-06-14T06:45:43;28.80;49.00
44517;DHT22;30223;17.182;-96.766;2023-06-14T06:48:10;28.80;49.10
44517;DHT22;30223;17.182;-96.766;2023-06-14T06:50:37;28.70;49.10
44517;DHT22;30223;17.182;-96.766;2023-06-14T06:53:04;28.70;49.20
44517;DHT22;30223;17.182;-96.766;2023-06-14T06:55:31;28.70;49.30
44517;DHT22;30223;17.182;-96.766;2023-06-14T06:57:58;28.60;49.30
44517;DHT22;30223;17.182;-96.766;2023-06-14T07:00:26;28.60;49.30
44517;DHT22;30223;17.182;-96.766;2023-06-14T07:02:53;28.60;49.40
44517;DHT22;30223;17.182;-96.766;2023-06-14T07:05:21;28.60;49.40
44517;DHT22;30223;17.182;-96.766;2023-06-14T07:07:47;28.50;49.40
44517;DHT22;30223;17.182;-96.766;2023-06-14T07:10:14;28.50;49.50
44517;DHT22;30223;17.182;-96.766;2023-06-14T07:12:41;28.50;49.60
44517;DHT22;30223;17.182;-96.766;2023-06-14T07:15:08;28.50;49.70
44517;DHT22;30223;17.182;-96.766;2023-06-14T07:17:35;28.40;49.60
44517;DHT22;30223;17.182;-96.766;2023-06-14T07:20:03;28.40;49.70
44517;DHT22;30223;17.182;-96.766;2023-06-14T07:22:34;28.40;49.80
44517;DHT22;30223;17.182;-96.766;2023-06-14T07:25:01;28.40;49.80
44517;DHT22;30223;17.182;-96.766;2023-06-14T07:27:29;28.30;49.80
44517;DHT22;30223;17.182;-96.766;2023-06-14T07:29:55;28.30;49.80
44517;DHT22;30223;17.182;-96.766;2023-06-14T07:32:22;28.30;49.90
44517;DHT22;30223;17.182;-96.766;2023-06-14T07:34:49;28.30;49.90
44517;DHT22;30223;17.182;-96.766;2023-06-14T07:37:15;28.20;49.90
44517;DHT22;30223;17.182;-96.766;2023-06-14T07:39:42;28.20;50.00
44517;DHT22;30223;17.182;-96.766;2023-06-14T07:42:09;28.20;50.00
44517;DHT22;30223;17.182;-96.766;2023-06-14T07:44:36;28.20;50.00
44517;DHT22;30223;17.182;-96.766;2023-06-14T07:47:03;28.20;50.10
44517;DHT22;30223;17.182;-96.766;2023-06-14T07:49:30;28.20;50.10
44517;DHT22;30223;17.182;-96.766;2023-06-14T07:51:57;28.20;50.20
44517;DHT22;30223;17.182;-96.766;2023-06-14T07:54:24;28.20;50.10
44517;DHT22;30223;17.182;-96.766;2023-06-14T07:56:52;28.10;50.20
44517;DHT22;30223;17.182;-96.766;2023-06-14T07:59:19;28.10;50.20
44517;DHT22;30223;17.182;-96.766;2023-06-14T08:01:46;28.10;50.30
44517;DHT22;30223;17.182;-96.766;2023-06-14T08:04:14;28.10;50.30
44517;DHT22;30223;17.182;-96.766;2023-06-14T08:06:41;28.10;50.30
44517;DHT22;30223;17.182;-96.766;2023-06-14T08:09:13;28.10;50.30
44517;DHT22;30223;17.182;-96.766;2023-06-14T08:11:39;28.00;50.30
44517;DHT22;30223;17.182;-96.766;2023-06-14T08:14:06;28.00;50.40
44517;DHT22;30223;17.182;-96.766;2023-06-14T08:16:33;28.00;50.40
44517;DHT22;30223;17.182;-96.766;2023-06-14T08:19:00;28.00;50.40
44517;DHT22;30223;17.182;-96.766;2023-06-14T08:21:27;28.00;50.50
44517;DHT22;30223;17.182;-96.766;2023-06-14T08:23:55;28.00;50.50
44517;DHT22;30223;17.182;-96.766;2023-06-14T08:26:22;28.00;50.50
44517;DHT22;30223;17.182;-96.766;2023-06-14T08:28:49;28.00;50.60
44517;DHT22;30223;17.182;-96.766;2023-06-14T08:31:16;28.00;50.60
44517;DHT22;30223;17.182;-96.766;2023-06-14T08:33:43;27.90;50.60
44517;DHT22;30223;17.182;-96.766;2023-06-14T08:36:10;27.90;50.60
44517;DHT22;30223;17.182;-96.766;2023-06-14T08:38:38;27.90;50.60
44517;DHT22;30223;17.182;-96.766;2023-06-14T08:41:05;27.90;50.60
44517;DHT22;30223;17.182;-96.766;2023-06-14T08:43:33;27.90;50.70
44517;DHT22;30223;17.182;-96.766;2023-06-14T08:46:02;27.90;50.70
44517;DHT22;30223;17.182;-96.766;2023-06-14T08:48:30;27.80;50.70
44517;DHT22;30223;17.182;-96.766;2023-06-14T08:51:00;27.80;50.70
44517;DHT22;30223;17.182;-96.766;2023-06-14T08:53:33;27.80;50.70
44517;DHT22;30223;17.182;-96.766;2023-06-14T08:56:03;27.80;50.70
44517;DHT22;30223;17.182;-96.766;2023-06-14T08:58:34;27.80;50.70
44517;DHT22;30223;17.182;-96.766;2023-06-14T09:01:02;27.80;50.80
44517;DHT22;30223;17.182;-96.766;2023-06-14T09:03:30;27.80;50.80
44517;DHT22;30223;17.182;-96.766;2023-06-14T09:05:57;27.80;50.80
44517;DHT22;30223;17.182;-96.766;2023-06-14T09:08:28;27.70;50.80
44517;DHT22;30223;17.182;-96.766;2023-06-14T09:10:59;27.70;50.80
44517;DHT22;30223;17.182;-96.766;2023-06-14T09:13:28;27.70;50.80
44517;DHT22;30223;17.182;-96.766;2023-06-14T09:15:54;27.70;50.90
44517;DHT22;30223;17.182;-96.766;2023-06-14T09:18:21;27.70;50.80
44517;DHT22;30223;17.182;-96.766;2023-06-14T09:20:49;27.70;50.90
44517;DHT22;30223;17.182;-96.766;2023-06-14T09:23:20;27.70;50.90
44517;DHT22;30223;17.182;-96.766;2023-06-14T09:25:48;27.70;51.00
44517;DHT22;30223;17.182;-96.766;2023-06-14T09:28:15;27.70;51.00
44517;DHT22;30223;17.182;-96.766;2023-06-14T09:30:41;27.70;51.00
44517;DHT22;30223;17.182;-96.766;2023-06-14T09:33:08;27.70;51.00
44517;DHT22;30223;17.182;-96.766;2023-06-14T09:35:35;27.60;51.00
44517;DHT22;30223;17.182;-96.766;2023-06-14T09:38:02;27.60;50.90
44517;DHT22;30223;17.182;-96.766;2023-06-14T09:40:34;27.60;51.00
44517;DHT22;30223;17.182;-96.766;2023-06-14T09:43:05;27.60;51.00
44517;DHT22;30223;17.182;-96.766;2023-06-14T09:45:34;27.60;51.00
44517;DHT22;30223;17.182;-96.766;2023-06-14T09:48:01;27.60;51.10
44517;DHT22;30223;17.182;-96.766;2023-06-14T09:50:28;27.60;51.10
44517;DHT22;30223;17.182;-96.766;2023-06-14T09:53:06;27.50;51.10
44517;DHT22;30223;17.182;-96.766;2023-06-14T09:55:35;27.50;51.00
44517;DHT22;30223;17.182;-96.766;2023-06-14T09:58:06;27.50;51.00
44517;DHT22;30223;17.182;-96.766;2023-06-14T10:00:33;27.50;51.10
44517;DHT22;30223;17.182;-96.766;2023-06-14T10:03:13;27.50;51.00
44517;DHT22;30223;17.182;-96.766;2023-06-14T10:05:45;27.50;51.20
44517;DHT22;30223;17.182;-96.766;2023-06-14T10:08:15;27.50;51.10
44517;DHT22;30223;17.182;-96.766;2023-06-14T10:10:43;27.50;51.20
44517;DHT22;30223;17.182;-96.766;2023-06-14T10:13:12;27.40;51.10
44517;DHT22;30223;17.182;-96.766;2023-06-14T10:18:40;27.40;51.20
44517;DHT22;30223;17.182;-96.766;2023-06-14T10:21:41;27.40;51.20
44517;DHT22;30223;17.182;-96.766;2023-06-14T10:24:13;27.40;51.20
44517;DHT22;30223;17.182;-96.766;2023-06-14T10:26:52;27.40;51.10
44517;DHT22;30223;17.182;-96.766;2023-06-14T10:29:18;27.40;51.20
44517;DHT22;30223;17.182;-96.766;2023-06-14T10:31:50;27.40;51.20
44517;DHT22;30223;17.182;-96.766;2023-06-14T10:34:25;27.30;51.20
44517;DHT22;30223;17.182;-96.766;2023-06-14T10:37:02;27.30;51.20
44517;DHT22;30223;17.182;-96.766;2023-06-14T10:39:29;27.30;51.20
44517;DHT22;30223;17.182;-96.766;2023-06-14T10:41:57;27.30;51.20
44517;DHT22;30223;17.182;-96.766;2023-06-14T10:46:54;27.30;51.30
44517;DHT22;30223;17.182;-96.766;2023-06-14T10:49:43;27.30;51.30
44517;DHT22;30223;17.182;-96.766;2023-06-14T10:52:14;27.20;51.20
44517;DHT22;30223;17.182;-96.766;2023-06-14T10:55:14;27.30;51.20
44517;DHT22;30223;17.182;-96.766;2023-06-14T10:57:47;27.30;51.30
44517;DHT22;30223;17.182;-96.766;2023-06-14T11:00:19;27.20;51.30
44517;DHT22;30223;17.182;-96.766;2023-06-14T11:05:53;27.20;51.30
44517;DHT22;30223;17.182;-96.766;2023-06-14T11:11:00;27.20;51.30
44517;DHT22;30223;17.182;-96.766;2023-06-14T11:13:27;27.10;51.30
44517;DHT22;30223;17.182;-96.766;2023-06-14T11:15:55;27.20;51.40
44517;DHT22;30223;17.182;-96.766;2023-06-14T11:18:24;27.10;51.30
44517;DHT22;30223;17.182;-96.766;2023-06-14T11:20:51;27.10;51.30
44517;DHT22;30223;17.182;-96.766;2023-06-14T11:23:18;27.10;51.30
44517;DHT22;30223;17.182;-96.766;2023-06-14T11:25:53;27.10;51.20
44517;DHT22;30223;17.182;-96.766;2023-06-14T11:28:19;27.10;51.30
44517;DHT22;30223;17.182;-96.766;2023-06-14T11:30:48;27.10;51.30
44517;DHT22;30223;17.182;-96.766;2023-06-14T11:33:18;27.10;51.30
44517;DHT22;30223;17.182;-96.766;2023-06-14T11:35:45;27.10;51.40
44517;DHT22;30223;17.182;-96.766;2023-06-14T11:38:12;27.00;51.40
44517;DHT22;30223;17.182;-96.766;2023-06-14T11:40:39;27.00;51.30
44517;DHT22;30223;17.182;-96.766;2023-06-14T11:43:06;27.00;51.40
44517;DHT22;30223;17.182;-96.766;2023-06-14T11:45:33;27.00;51.40
44517;DHT22;30223;17.182;-96.766;2023-06-14T11:47:59;27.00;51.30
44517;DHT22;30223;17.182;-96.766;2023-06-14T11:50:28;27.00;52.00
44517;DHT22;30223;17.182;-96.766;2023-06-14T11:52:57;27.00;51.40
44517;DHT22;30223;17.182;-96.766;2023-06-14T11:55:26;26.90;51.30
44517;DHT22;30223;17.182;-96.766;2023-06-14T11:57:55;27.00;51.40
44517;DHT22;30223;17.182;-96.766;2023-06-14T12:00:29;26.90;51.30
44517;DHT22;30223;17.182;-96.766;2023-06-14T12:02:58;26.90;51.40
44517;DHT22;30223;17.182;-96.766;2023-06-14T12:05:27;26.90;51.40
44517;DHT22;30223;17.182;-96.766;2023-06-14T12:08:02;26.90;51.40
44517;DHT22;30223;17.182;-96.766;2023-06-14T12:10:40;26.90;51.40
44517;DHT22;30223;17.182;-96.766;2023-06-14T12:13:09;26.80;51.40
44517;DHT22;30223;17.182;-96.766;2023-06-14T12:15:37;26.90;51.50
44517;DHT22;30223;17.182;-96.766;2023-06-14T12:18:06;26.80;51.40
44517;DHT22;30223;17.182;-96.766;2023-06-14T12:20:34;26.80;51.40
44517;DHT22;30223;17.182;-96.766;2023-06-14T12:23:04;26.80;51.40
44517;DHT22;30223;17.182;-96.766;2023-06-14T12:25:32;26.80;51.40
44517;DHT22;30223;17.182;-96.766;2023-06-14T12:28:09;26.80;51.40
44517;DHT22;30223;17.182;-96.766;2023-06-14T12:30:37;26.70;51.40
44517;DHT22;30223;17.182;-96.766;2023-06-14T12:33:05;26.70;51.50
44517;DHT22;30223;17.182;-96.766;2023-06-14T12:35:32;26.70;51.40
44517;DHT22;30223;17.182;-96.766;2023-06-14T12:37:58;26.70;51.50
44517;DHT22;30223;17.182;-96.766;2023-06-14T12:40:25;26.70;51.50
44517;DHT22;30223;17.182;-96.766;2023-06-14T12:42:52;26.70;51.50
44517;DHT22;30223;17.182;-96.766;2023-06-14T12:45:19;26.70;51.60
44517;DHT22;30223;17.182;-96.766;2023-06-14T12:47:46;26.70;51.50
44517;DHT22;30223;17.182;-96.766;2023-06-14T12:50:13;26.70;51.60
44517;DHT22;30223;17.182;-96.766;2023-06-14T12:52:39;26.60;51.60
44517;DHT22;30223;17.182;-96.766;2023-06-14T12:55:06;26.60;51.60
44517;DHT22;30223;17.182;-96.766;2023-06-14T12:57:34;26.60;51.60
44517;DHT22;30223;17.182;-96.766;2023-06-14T13:00:03;26.60;51.60
44517;DHT22;30223;17.182;-96.766;2023-06-14T13:02:31;26.60;51.60
44517;DHT22;30223;17.182;-96.766;2023-06-14T13:04:57;26.50;51.60
44517;DHT22;30223;17.182;-96.766;2023-06-14T13:07:25;26.60;51.60
44517;DHT22;30223;17.182;-96.766;2023-06-14T13:09:51;26.60;51.70
44517;DHT22;30223;17.182;-96.766;2023-06-14T13:12:18;26.50;51.60
44517;DHT22;30223;17.182;-96.766;2023-06-14T13:14:46;26.50;51.60
44517;DHT22;30223;17.182;-96.766;2023-06-14T13:17:12;26.50;51.60
44517;DHT22;30223;17.182;-96.766;2023-06-14T13:19:39;26.50;51.70
44517;DHT22;30223;17.182;-96.766;2023-06-14T13:22:07;26.50;51.70
44517;DHT22;30223;17.182;-96.766;2023-06-14T13:24:35;26.50;51.70
44517;DHT22;30223;17.182;-96.766;2023-06-14T13:27:01;26.50;51.70
44517;DHT22;30223;17.182;-96.766;2023-06-14T13:29:28;26.40;51.70
44517;DHT22;30223;17.182;-96.766;2023-06-14T13:31:57;26.40;51.70
44517;DHT22;30223;17.182;-96.766;2023-06-14T13:34:23;26.40;51.70
44517;DHT22;30223;17.182;-96.766;2023-06-14T13:36:50;26.40;51.80
44517;DHT22;30223;17.182;-96.766;2023-06-14T13:39:17;26.40;51.80
44517;DHT22;30223;17.182;-96.766;2023-06-14T13:41:44;26.40;51.80
44517;DHT22;30223;17.182;-96.766;2023-06-14T13:44:10;26.40;51.80
44517;DHT22;30223;17.182;-96.766;2023-06-14T13:46:40;26.40;51.80
44517;DHT22;30223;17.182;-96.766;2023-06-14T13:49:09;26.40;51.80
44517;DHT22;30223;17.182;-96.766;2023-06-14T13:51:36;26.30;51.80
44517;DHT22;30223;17.182;-96.766;2023-06-14T13:54:03;26.30;51.90
44517;DHT22;30223;17.182;-96.766;2023-06-14T13:56:30;26.30;51.90
44517;DHT22;30223;17.182;-96.766;2023-06-14T13:58:56;26.30;52.00
44517;DHT22;30223;17.182;-96.766;2023-06-14T14:01:23;26.30;52.00
44517;DHT22;30223;17.182;-96.766;2023-06-14T14:03:51;26.30;52.10
44517;DHT22;30223;17.182;-96.766;2023-06-14T14:06:18;26.30;52.00
44517;DHT22;30223;17.182;-96.766;2023-06-14T14:08:45;26.30;52.00
44517;DHT22;30223;17.182;-96.766;2023-06-14T14:11:11;26.30;52.10
44517;DHT22;30223;17.182;-96.766;2023-06-14T14:13:38;26.30;52.10
44517;DHT22;30223;17.182;-96.766;2023-06-14T14:16:06;26.30;52.10
44517;DHT22;30223;17.182;-96.766;2023-06-14T14:18:33;26.30;52.10
44517;DHT22;30223;17.182;-96.766;2023-06-14T14:21:00;26.30;52.20
44517;DHT22;30223;17.182;-96.766;2023-06-14T14:23:26;26.30;52.20
44517;DHT22;30223;17.182;-96.766;2023-06-14T14:25:54;26.30;52.20
44517;DHT22;30223;17.182;-96.766;2023-06-14T14:28:20;26.30;52.20
44517;DHT22;30223;17.182;-96.766;2023-06-14T14:30:47;26.30;52.20
44517;DHT22;30223;17.182;-96.766;2023-06-14T14:33:14;26.30;52.30
44517;DHT22;30223;17.182;-96.766;2023-06-14T14:35:45;26.30;52.30
44517;DHT22;30223;17.182;-96.766;2023-06-14T14:38:15;26.30;52.40
44517;DHT22;30223;17.182;-96.766;2023-06-14T14:40:43;26.30;52.40
44517;DHT22;30223;17.182;-96.766;2023-06-14T14:43:10;26.30;52.50
44517;DHT22;30223;17.182;-96.766;2023-06-14T14:45:37;26.30;52.50
44517;DHT22;30223;17.182;-96.766;2023-06-14T14:48:04;26.30;52.60
44517;DHT22;30223;17.182;-96.766;2023-06-14T14:50:32;26.30;52.60
44517;DHT22;30223;17.182;-96.766;2023-06-14T14:52:59;26.30;52.60
44517;DHT22;30223;17.182;-96.766;2023-06-14T14:55:25;26.30;52.60
44517;DHT22;30223;17.182;-96.766;2023-06-14T14:57:52;26.30;52.70
44517;DHT22;30223;17.182;-96.766;2023-06-14T15:00:19;26.30;52.70
44517;DHT22;30223;17.182;-96.766;2023-06-14T15:02:46;26.30;52.80
44517;DHT22;30223;17.182;-96.766;2023-06-14T15:05:12;26.30;52.70
44517;DHT22;30223;17.182;-96.766;2023-06-14T15:07:39;26.30;52.80
44517;DHT22;30223;17.182;-96.766;2023-06-14T15:10:07;26.30;52.80
44517;DHT22;30223;17.182;-96.766;2023-06-14T15:12:35;26.30;52.80
44517;DHT22;30223;17.182;-96.766;2023-06-14T15:15:02;26.30;52.80
44517;DHT22;30223;17.182;-96.766;2023-06-14T15:17:30;26.30;52.70
44517;DHT22;30223;17.182;-96.766;2023-06-14T15:19:57;26.30;52.70
44517;DHT22;30223;17.182;-96.766;2023-06-14T15:22:23;26.30;52.80
44517;DHT22;30223;17.182;-96.766;2023-06-14T15:24:50;26.30;52.80
44517;DHT22;30223;17.182;-96.766;2023-06-14T15:27:17;26.30;52.90